Campbellsburg, Indiana
Current Conditions -  °F | °C
As of 7:18 PM on Sunday 23 Nov 2014 (Local Time) from KBMG Reporting Station
Moderate Rain Moderate Rain  
Wind Chill: 52°   Ceiling: 1300
Heat Index: 52°   Visibility: 4mi
Dew Point: 51°   Wind: 12mph
Humidity: 97%   Direction: 130°SE
Pressure: 29.33"   Gusts: NA
Location:  38.65°N, 86.26°W
Report Text: KBMG 240018Z 13010KT 4SM RA BR SCT006 BKN013 OVC022 11/11 A2933 RMK AO2 P0011 T01110106
Loading
Personal Weather Stations






























Interactive Weather Map New forecast layout! Learn more

10-Day Weather Forecast

Advertisements
Track Severe Weather on mobile